X  Fermer Données météorologiques d'aviation de Metar     EHRD Rotterdam The Hague Airport
Température
4°C Température
2°C Point de rosée
87% Humidité



Vent
14 KM/H
9 MPH
4 M/S
8 KTS



240°
OSO
Conditions actuelles

Nuages épars Nuages épars
Pression 989.92 (hPa) - 29.23 (inHg)
Visibilité 6.2 (mile) - 10 (km)
Aéroport
Code de l'aéroport EHRD

Emplacement: Rotterdam The Hague Airport
Distance: 16 (km)

Metar:
EHRD 220825Z AUTO 24008KT 9999 SCT020 BKN023 04/02 Q0990 NOSIG

Temps: 22-01-2021 09:25 CET